Time;durP1;ratioP1;P1;durP2;ratioP2;P2;SDS_P1;SDS_P2;PMS_P1;PMS_P2;Temp;Humidity;BMP_temperature;BMP_pressure;BME280_temperature;BME280_humidity;BME280_pressure;Samples;Min_cycle;Max_cycle;Signal;HPM_P1;HPM_P2
2021/03/04 00:02:00;;;;;;;36.33;16.93;;;7.00;99.90;;;;;;5052254;28;20243;-76
2021/03/04 00:04:28;;;;;;;40.47;19.87;;;7.10;99.90;;;;;;5052456;28;20660;-75
2021/03/04 00:06:54;;;;;;;45.17;20.23;;;7.20;99.90;;;;;;5050964;28;20288;-76
2021/03/04 00:09:21;;;;;;;55.47;22.30;;;7.40;99.90;;;;;;5052272;28;20234;-76
2021/03/04 00:11:47;;;;;;;46.23;21.27;;;7.50;99.90;;;;;;5052076;28;20234;-77
2021/03/04 00:14:14;;;;;;;50.57;22.03;;;7.50;99.90;;;;;;5052363;28;20653;-77
2021/03/04 00:16:40;;;;;;;52.53;22.60;;;7.50;99.90;;;;;;5050279;28;20284;-77
2021/03/04 00:19:07;;;;;;;44.60;21.00;;;7.60;99.90;;;;;;5032073;28;20657;-76
2021/03/04 00:21:34;;;;;;;42.93;20.87;;;7.60;99.90;;;;;;5031895;28;20235;-77
2021/03/04 00:24:00;;;;;;;46.17;22.03;;;7.70;99.90;;;;;;5031892;28;20637;-76
2021/03/04 00:26:27;;;;;;;48.20;21.87;;;7.80;99.90;;;;;;5032191;28;20205;-76
2021/03/04 00:28:53;;;;;;;44.00;21.43;;;7.80;99.90;;;;;;5031903;28;20214;-77
2021/03/04 00:31:19;;;;;;;44.90;21.47;;;7.90;99.90;;;;;;5032057;28;20261;-76
2021/03/04 00:33:46;;;;;;;47.40;19.60;;;7.90;99.90;;;;;;5044135;28;20313;-76
2021/03/04 00:36:12;;;;;;;53.50;20.97;;;8.00;99.90;;;;;;5051573;28;20594;-76
2021/03/04 00:38:40;;;;;;;42.17;19.00;;;8.00;99.90;;;;;;5051712;28;20268;-76
2021/03/04 00:41:06;;;;;;;46.23;19.60;;;8.00;99.90;;;;;;5051761;28;20701;-77
2021/03/04 00:43:33;;;;;;;48.50;19.07;;;8.00;99.90;;;;;;5051846;28;20231;-76
2021/03/04 00:45:59;;;;;;;50.17;19.30;;;8.00;99.90;;;;;;5051684;28;20286;-76
2021/03/04 00:48:26;;;;;;;40.23;19.43;;;8.00;99.90;;;;;;5051599;28;20209;-76
2021/03/04 00:50:53;;;;;;;52.00;19.17;;;8.00;99.90;;;;;;5051477;28;20251;-77
2021/03/04 00:53:19;;;;;;;38.80;18.37;;;8.10;99.90;;;;;;5051880;28;20602;-76
2021/03/04 00:55:46;;;;;;;37.83;19.10;;;8.10;99.90;;;;;;5048304;28;20309;-76
2021/03/04 00:58:13;;;;;;;49.17;19.27;;;8.10;99.90;;;;;;5032049;28;20230;-76
2021/03/04 01:00:40;;;;;;;46.33;18.97;;;8.10;99.90;;;;;;5032888;28;20753;-76
2021/03/04 01:03:06;;;;;;;38.07;19.47;;;8.10;99.90;;;;;;5051373;28;20209;-76
2021/03/04 01:05:32;;;;;;;37.17;19.30;;;8.10;99.90;;;;;;5055245;28;20229;-76
2021/03/04 01:07:59;;;;;;;37.33;20.13;;;8.10;99.90;;;;;;5054815;28;20283;-76
2021/03/04 01:10:30;;;;;;;41.60;19.67;;;8.20;99.90;;;;;;5055308;28;20298;-76
2021/03/04 01:12:57;;;;;;;42.37;19.53;;;8.10;99.90;;;;;;5055275;28;20685;-76
2021/03/04 01:15:24;;;;;;;33.03;19.50;;;8.20;99.90;;;;;;5055368;28;20313;-76
2021/03/04 01:17:51;;;;;;;41.70;19.87;;;8.20;99.90;;;;;;5054682;28;20280;-76
2021/03/04 01:20:19;;;;;;;35.77;19.60;;;8.20;99.90;;;;;;5055016;28;20206;-76
2021/03/04 01:22:46;;;;;;;38.93;20.83;;;8.20;99.90;;;;;;5055738;28;20232;-76
2021/03/04 01:25:13;;;;;;;34.13;19.13;;;8.20;99.90;;;;;;5039832;28;20267;-76
2021/03/04 01:27:39;;;;;;;35.77;19.13;;;8.20;99.90;;;;;;5053216;28;20251;-76
2021/03/04 01:30:09;;;;;;;39.40;19.50;;;8.20;99.90;;;;;;5055026;28;20253;-76
2021/03/04 01:32:36;;;;;;;30.80;18.60;;;8.20;99.90;;;;;;5055140;28;20246;-76
2021/03/04 01:35:03;;;;;;;35.27;18.57;;;8.20;99.90;;;;;;5054885;28;20315;-76
2021/03/04 01:37:30;;;;;;;36.60;19.37;;;8.30;99.90;;;;;;5055185;28;20254;-77
2021/03/04 01:39:56;;;;;;;40.87;19.93;;;8.30;99.90;;;;;;5055429;28;20627;-77
2021/03/04 01:42:23;;;;;;;36.73;18.73;;;8.30;99.90;;;;;;5054875;28;20242;-76
2021/03/04 01:44:49;;;;;;;44.17;19.40;;;8.30;99.90;;;;;;5055151;28;20238;-76
2021/03/04 01:47:19;;;;;;;36.87;18.77;;;8.40;99.90;;;;;;5054775;28;20764;-76
2021/03/04 01:49:47;;;;;;;37.63;17.97;;;8.40;99.90;;;;;;5054214;28;20240;-76
2021/03/04 01:52:13;;;;;;;36.67;17.43;;;8.40;99.90;;;;;;5054568;28;20244;-76
2021/03/04 01:54:40;;;;;;;32.53;16.07;;;8.40;99.90;;;;;;5054780;28;20311;-77
2021/03/04 01:57:06;;;;;;;36.73;17.57;;;8.40;99.90;;;;;;5054445;28;20224;-76
2021/03/04 01:59:33;;;;;;;33.50;16.13;;;8.50;99.90;;;;;;5054307;28;20740;-76
2021/03/04 02:01:59;;;;;;;38.10;16.77;;;8.40;99.90;;;;;;5054534;28;20239;-76
2021/03/04 02:04:26;;;;;;;29.70;15.27;;;8.40;99.90;;;;;;5054412;28;20653;-76
2021/03/04 02:07:02;;;;;;;30.67;16.77;;;8.50;99.90;;;;;;5054575;28;20676;-77
2021/03/04 02:09:30;;;;;;;33.53;15.67;;;8.50;99.90;;;;;;5054681;28;20648;-76
2021/03/04 02:12:03;;;;;;;36.17;15.20;;;8.50;99.90;;;;;;5054394;28;20719;-77
2021/03/04 02:14:33;;;;;;;37.00;16.27;;;8.50;99.90;;;;;;5045481;28;20226;-77
2021/03/04 02:17:04;;;;;;;35.20;14.97;;;8.50;99.90;;;;;;5048475;28;20680;-78
2021/03/04 02:19:48;;;;;;;32.37;14.97;;;8.50;99.90;;;;;;5053804;28;20269;-76
2021/03/04 02:22:24;;;;;;;31.60;15.33;;;8.50;99.90;;;;;;5054068;28;20232;-76
2021/03/04 02:25:00;;;;;;;31.67;15.33;;;8.50;99.90;;;;;;5054212;28;20204;-76
2021/03/04 02:27:28;;;;;;;32.57;14.90;;;8.50;99.90;;;;;;5054010;28;20210;-76
2021/03/04 02:30:02;;;;;;;30.83;14.90;;;8.50;99.90;;;;;;5054157;28;20213;-76
2021/03/04 02:32:31;;;;;;;37.23;14.93;;;8.40;99.90;;;;;;5053347;28;20700;-76
2021/03/04 02:35:03;;;;;;;35.43;16.17;;;8.30;99.90;;;;;;5053786;28;20262;-76
2021/03/04 02:37:33;;;;;;;32.27;15.93;;;8.30;99.90;;;;;;5053779;28;20615;-76
2021/03/04 02:40:00;;;;;;;33.53;16.27;;;8.30;99.90;;;;;;5053690;28;20289;-76
2021/03/04 02:42:28;;;;;;;31.50;15.20;;;8.30;99.90;;;;;;5053321;28;20237;-76
2021/03/04 02:44:57;;;;;;;33.90;14.30;;;8.30;99.90;;;;;;5053682;28;20231;-76
2021/03/04 02:47:24;;;;;;;34.97;15.90;;;8.30;99.90;;;;;;5053557;28;20245;-76
2021/03/04 02:49:52;;;;;;;34.83;15.30;;;8.30;99.90;;;;;;5035815;28;20653;-76
2021/03/04 02:52:19;;;;;;;31.30;15.20;;;8.40;99.90;;;;;;5053330;28;20237;-76
2021/03/04 02:54:46;;;;;;;29.00;15.77;;;8.30;99.90;;;;;;5053918;28;20266;-76
2021/03/04 02:57:14;;;;;;;34.60;15.97;;;8.40;99.90;;;;;;5053340;28;21041;-76
2021/03/04 02:59:43;;;;;;;32.00;15.73;;;8.40;99.90;;;;;;5053438;28;20621;-76
2021/03/04 03:02:11;;;;;;;32.20;15.93;;;8.40;99.90;;;;;;5053150;28;20236;-76
2021/03/04 03:04:39;;;;;;;29.60;15.97;;;8.40;99.90;;;;;;5053442;28;20238;-76
2021/03/04 03:07:09;;;;;;;34.33;16.20;;;8.40;99.90;;;;;;5053466;28;20238;-76
2021/03/04 03:09:38;;;;;;;34.97;16.53;;;8.40;99.90;;;;;;5053551;28;20260;-76
2021/03/04 03:12:06;;;;;;;33.53;16.00;;;8.30;99.90;;;;;;5053151;28;20295;-76
2021/03/04 03:14:33;;;;;;;26.97;15.50;;;8.30;99.90;;;;;;5052897;28;20714;-76
2021/03/04 03:17:00;;;;;;;28.83;15.97;;;8.20;99.90;;;;;;5048339;28;20282;-77
2021/03/04 03:19:27;;;;;;;28.47;14.67;;;8.20;99.90;;;;;;5033239;28;20675;-77
2021/03/04 03:21:54;;;;;;;30.33;15.60;;;8.10;99.90;;;;;;5033111;28;20237;-77
2021/03/04 03:24:21;;;;;;;36.80;16.50;;;8.10;99.90;;;;;;5032832;28;20879;-77
2021/03/04 03:26:47;;;;;;;33.50;16.23;;;8.00;99.90;;;;;;5043891;28;20235;-77
2021/03/04 03:29:14;;;;;;;32.47;16.93;;;8.00;99.90;;;;;;5044365;28;20284;-77
2021/03/04 03:31:42;;;;;;;32.97;17.13;;;8.00;99.90;;;;;;5033872;28;20625;-77
2021/03/04 03:34:10;;;;;;;35.43;16.20;;;8.10;99.90;;;;;;5052740;28;20276;-76
2021/03/04 03:36:37;;;;;;;33.37;16.07;;;8.10;99.90;;;;;;5052169;28;20601;-77
2021/03/04 03:39:07;;;;;;;30.17;16.90;;;8.20;99.90;;;;;;5052872;28;20288;-77
2021/03/04 03:41:34;;;;;;;38.37;17.67;;;8.20;99.90;;;;;;5035032;28;20227;-77
2021/03/04 03:44:01;;;;;;;35.33;17.20;;;8.20;99.90;;;;;;5052678;28;20632;-75
2021/03/04 03:46:32;;;;;;;39.97;17.73;;;8.20;99.90;;;;;;5052356;28;20293;-75
2021/03/04 03:49:02;;;;;;;42.07;19.43;;;8.20;99.90;;;;;;5052677;28;20203;-75
2021/03/04 03:51:31;;;;;;;37.83;19.10;;;8.20;99.90;;;;;;5052434;28;20228;-77
2021/03/04 03:54:00;;;;;;;42.00;20.03;;;8.20;99.90;;;;;;5051969;28;20704;-77
2021/03/04 03:56:28;;;;;;;46.70;20.27;;;8.20;99.90;;;;;;5051985;28;20286;-76
2021/03/04 03:58:58;;;;;;;38.20;19.73;;;8.20;99.90;;;;;;5051812;28;20233;-76
2021/03/04 04:01:25;;;;;;;39.00;20.60;;;8.20;99.90;;;;;;5052299;28;20203;-74
2021/03/04 04:03:54;;;;;;;37.30;21.30;;;8.30;99.90;;;;;;5034758;28;21038;-76
2021/03/04 04:06:21;;;;;;;43.70;21.27;;;8.20;99.90;;;;;;5052377;28;20289;-76
2021/03/04 04:08:48;;;;;;;39.63;22.63;;;8.20;99.90;;;;;;5052438;28;20228;-76
2021/03/04 04:11:14;;;;;;;38.07;22.20;;;8.20;99.90;;;;;;5052287;28;20241;-76
2021/03/04 04:13:41;;;;;;;36.13;21.83;;;8.20;99.90;;;;;;5051824;28;20245;-76
2021/03/04 04:16:08;;;;;;;36.67;21.57;;;8.20;99.90;;;;;;5052122;28;20263;-76
2021/03/04 04:18:35;;;;;;;37.70;21.67;;;8.10;99.90;;;;;;5045877;28;20285;-76
2021/03/04 04:21:02;;;;;;;43.00;22.63;;;8.10;99.90;;;;;;5052456;28;20298;-76
2021/03/04 04:23:29;;;;;;;37.70;21.40;;;8.10;99.90;;;;;;5052164;28;20244;-76
2021/03/04 04:25:56;;;;;;;36.27;22.90;;;8.00;99.90;;;;;;5052159;28;20234;-77
2021/03/04 04:28:22;;;;;;;38.20;23.13;;;8.00;99.90;;;;;;5051826;28;20200;-76
2021/03/04 04:30:49;;;;;;;33.93;22.33;;;8.00;99.90;;;;;;5052368;28;20249;-76
2021/03/04 04:33:17;;;;;;;37.53;22.93;;;8.00;99.90;;;;;;5052066;28;20460;-76
2021/03/04 04:35:43;;;;;;;35.87;21.00;;;8.00;99.90;;;;;;5051770;28;20313;-76
2021/03/04 04:38:10;;;;;;;41.77;21.97;;;8.00;99.90;;;;;;5052705;28;20591;-76
2021/03/04 04:40:37;;;;;;;45.07;22.60;;;8.10;99.90;;;;;;5056130;28;20667;-77
2021/03/04 04:43:05;;;;;;;39.90;22.40;;;8.00;99.90;;;;;;5055783;28;20290;-76
2021/03/04 04:45:31;;;;;;;41.63;22.00;;;8.00;99.90;;;;;;5056338;28;20229;-76
2021/03/04 04:47:57;;;;;;;45.10;22.77;;;8.00;99.90;;;;;;5056313;28;20243;-76
2021/03/04 04:50:24;;;;;;;40.27;21.47;;;8.10;99.90;;;;;;5055990;28;20243;-76
2021/03/04 04:52:50;;;;;;;37.90;21.33;;;8.00;99.90;;;;;;5039888;28;20248;-76
2021/03/04 04:55:17;;;;;;;39.57;21.23;;;8.10;99.90;;;;;;5035925;28;20316;-76
2021/03/04 04:57:43;;;;;;;43.47;22.00;;;8.10;99.90;;;;;;5035368;28;20863;-76
2021/03/04 05:00:12;;;;;;;40.07;21.27;;;8.10;99.90;;;;;;5035922;28;20681;-76
2021/03/04 05:02:39;;;;;;;46.33;21.37;;;8.00;99.90;;;;;;5035903;28;20352;-76
2021/03/04 05:05:07;;;;;;;47.20;20.73;;;8.00;99.90;;;;;;5035484;28;20871;-76
2021/03/04 05:07:34;;;;;;;46.50;21.37;;;8.00;99.90;;;;;;5035662;28;20234;-77
2021/03/04 05:10:00;;;;;;;39.90;20.10;;;8.10;99.90;;;;;;5044587;28;20229;-76
2021/03/04 05:12:27;;;;;;;35.87;20.10;;;8.10;99.90;;;;;;5037582;28;20245;-76
2021/03/04 05:14:53;;;;;;;38.43;18.67;;;8.00;99.90;;;;;;5055618;28;20315;-76
2021/03/04 05:17:21;;;;;;;34.67;19.03;;;8.00;99.90;;;;;;5048028;28;20258;-78
2021/03/04 05:19:47;;;;;;;38.00;18.50;;;8.00;99.90;;;;;;5055167;28;20285;-76
2021/03/04 05:22:14;;;;;;;35.73;18.53;;;8.00;99.90;;;;;;5037900;28;20204;-76
2021/03/04 05:24:40;;;;;;;34.73;17.43;;;8.10;99.90;;;;;;5055359;28;20676;-76
2021/03/04 05:27:08;;;;;;;39.37;19.47;;;8.00;99.90;;;;;;5055268;28;20233;-76
2021/03/04 05:29:34;;;;;;;31.23;18.07;;;8.00;99.90;;;;;;5055433;28;20605;-76
2021/03/04 05:32:00;;;;;;;36.13;19.07;;;8.00;99.90;;;;;;5055367;28;20393;-76
2021/03/04 05:34:28;;;;;;;35.03;18.63;;;8.00;99.90;;;;;;5055131;28;20725;-76
2021/03/04 05:36:54;;;;;;;33.83;18.67;;;8.10;99.90;;;;;;5041838;28;20310;-76
2021/03/04 05:39:20;;;;;;;32.43;18.40;;;8.10;99.90;;;;;;5035306;28;20236;-76
2021/03/04 05:41:47;;;;;;;35.20;18.67;;;8.00;99.90;;;;;;5034875;28;20675;-76
2021/03/04 05:44:14;;;;;;;35.27;18.30;;;8.00;99.90;;;;;;5035244;28;20244;-77
2021/03/04 05:46:41;;;;;;;33.33;18.00;;;8.00;99.90;;;;;;5035096;28;20239;-76
2021/03/04 05:49:13;;;;;;;29.67;17.33;;;8.10;99.90;;;;;;5034902;28;20292;-76
2021/03/04 05:51:43;;;;;;;30.23;17.17;;;8.00;99.90;;;;;;5034853;28;20289;-76
2021/03/04 05:54:14;;;;;;;36.00;17.50;;;8.10;99.90;;;;;;5051653;28;20264;-76
2021/03/04 05:56:42;;;;;;;35.03;18.07;;;8.10;99.90;;;;;;5055182;28;20245;-76
2021/03/04 05:59:09;;;;;;;35.10;18.13;;;8.10;99.90;;;;;;5055136;28;20283;-76
2021/03/04 06:01:36;;;;;;;30.73;18.03;;;8.10;99.90;;;;;;5054750;28;20250;-76
2021/03/04 06:04:03;;;;;;;33.93;18.10;;;8.00;99.90;;;;;;5054610;28;20319;-76
2021/03/04 06:06:29;;;;;;;31.80;18.13;;;8.00;99.90;;;;;;5054768;28;20206;-76
2021/03/04 06:08:56;;;;;;;36.10;17.70;;;8.00;99.90;;;;;;5054180;28;20285;-76
2021/03/04 06:11:23;;;;;;;30.47;18.43;;;8.00;99.90;;;;;;5054769;28;20593;-77
2021/03/04 06:13:50;;;;;;;40.63;18.97;;;8.00;99.90;;;;;;5054135;28;20291;-76
2021/03/04 06:16:17;;;;;;;34.43;18.00;;;7.90;99.90;;;;;;5054438;28;20624;-76
2021/03/04 06:18:45;;;;;;;34.97;19.13;;;7.90;99.90;;;;;;5034960;28;20269;-76
2021/03/04 06:21:19;;;;;;;34.70;18.83;;;7.90;99.90;;;;;;5034309;28;20247;-76
2021/03/04 06:23:46;;;;;;;35.53;18.10;;;7.90;99.90;;;;;;5034180;28;20276;-76
2021/03/04 06:26:27;;;;;;;33.53;19.13;;;7.90;99.90;;;;;;5034283;28;20302;-76
2021/03/04 06:28:54;;;;;;;34.83;19.47;;;7.90;99.90;;;;;;5033940;28;20306;-76
2021/03/04 06:31:20;;;;;;;35.57;18.53;;;7.90;99.90;;;;;;5034323;28;20258;-77
2021/03/04 06:33:47;;;;;;;43.37;18.90;;;7.90;99.90;;;;;;5033857;28;20243;-76
2021/03/04 06:36:16;;;;;;;39.60;20.60;;;7.90;99.90;;;;;;5033846;28;20261;-77
2021/03/04 06:38:53;;;;;;;39.27;20.00;;;7.90;99.90;;;;;;5033980;28;20211;-76
2021/03/04 06:41:21;;;;;;;40.63;20.40;;;7.90;99.90;;;;;;5034318;28;20594;-76
2021/03/04 06:43:59;;;;;;;39.73;20.40;;;7.90;99.90;;;;;;5034182;28;20302;-76
2021/03/04 06:46:26;;;;;;;43.57;20.17;;;7.90;99.90;;;;;;5034120;28;20249;-76
2021/03/04 06:48:53;;;;;;;42.93;20.93;;;7.90;99.90;;;;;;5033537;28;20787;-76
2021/03/04 06:51:19;;;;;;;40.07;20.80;;;7.90;99.90;;;;;;5033938;28;20286;-76
2021/03/04 06:53:52;;;;;;;38.97;21.07;;;7.90;99.90;;;;;;5039974;28;20241;-76
2021/03/04 06:56:29;;;;;;;38.17;20.93;;;7.90;99.90;;;;;;5053704;28;20694;-76
2021/03/04 06:59:02;;;;;;;41.73;20.53;;;7.90;99.90;;;;;;5053674;28;20198;-76
2021/03/04 07:01:29;;;;;;;39.90;21.27;;;8.00;99.90;;;;;;5042311;28;20626;-76
2021/03/04 07:03:56;;;;;;;35.93;21.07;;;8.00;99.90;;;;;;5033766;28;20288;-76
2021/03/04 07:06:25;;;;;;;35.50;21.43;;;7.90;99.90;;;;;;5033595;28;20240;-77
2021/03/04 07:08:53;;;;;;;36.67;20.40;;;8.00;99.90;;;;;;5033437;28;20659;-76
2021/03/04 07:11:20;;;;;;;42.33;21.83;;;8.00;99.90;;;;;;5033573;28;20720;-76
2021/03/04 07:13:50;;;;;;;41.97;22.37;;;8.00;99.90;;;;;;5033961;28;20215;-76
2021/03/04 07:16:19;;;;;;;40.23;21.40;;;8.00;99.90;;;;;;5052919;28;20316;-76
2021/03/04 07:18:49;;;;;;;38.27;20.93;;;8.00;99.90;;;;;;5049137;28;20361;-76
2021/03/04 07:21:17;;;;;;;36.90;21.57;;;8.00;99.90;;;;;;5032990;28;20240;-76
2021/03/04 07:23:46;;;;;;;36.10;20.97;;;8.00;99.90;;;;;;5032847;28;20237;-76
2021/03/04 07:26:14;;;;;;;38.93;22.20;;;8.00;99.90;;;;;;5032196;28;20198;-76
2021/03/04 07:28:43;;;;;;;38.80;22.20;;;8.00;99.90;;;;;;5032869;28;20201;-76
2021/03/04 07:31:10;;;;;;;37.83;21.40;;;8.10;99.90;;;;;;5032867;28;20237;-76
2021/03/04 07:33:42;;;;;;;34.27;21.27;;;8.10;99.90;;;;;;5033161;28;20207;-76
2021/03/04 07:36:11;;;;;;;38.63;20.97;;;8.10;99.90;;;;;;5032699;28;20634;-76
2021/03/04 07:38:38;;;;;;;39.57;21.57;;;8.10;99.90;;;;;;5032471;28;20204;-76
2021/03/04 07:41:07;;;;;;;39.50;21.57;;;8.10;99.90;;;;;;5032364;28;20203;-78
2021/03/04 07:43:47;;;;;;;38.03;21.10;;;8.10;99.90;;;;;;5032533;28;20198;-76
2021/03/04 07:46:29;;;;;;;30.90;19.33;;;8.10;99.90;;;;;;5032537;28;20290;-76
2021/03/04 07:48:57;;;;;;;35.50;19.93;;;8.20;99.90;;;;;;5032642;28;20206;-76
2021/03/04 07:51:24;;;;;;;33.87;19.80;;;8.30;99.90;;;;;;5032243;28;20233;-76
2021/03/04 07:53:53;;;;;;;34.17;19.90;;;8.30;99.90;;;;;;5032619;28;20217;-76
2021/03/04 07:56:24;;;;;;;34.43;19.70;;;8.40;99.90;;;;;;5032504;28;20222;-76
2021/03/04 07:58:51;;;;;;;33.37;19.80;;;8.50;99.90;;;;;;5033012;28;20208;-76
2021/03/04 08:01:18;;;;;;;33.70;20.10;;;8.60;99.90;;;;;;5032327;28;20198;-76
2021/03/04 08:03:46;;;;;;;31.23;18.90;;;8.70;99.90;;;;;;5032357;28;20238;-76
2021/03/04 08:06:13;;;;;;;34.93;20.27;;;8.80;99.90;;;;;;5032434;28;20203;-76
2021/03/04 08:08:40;;;;;;;32.33;19.70;;;9.00;99.90;;;;;;5032986;28;20198;-76
2021/03/04 08:11:06;;;;;;;40.53;20.97;;;9.00;99.90;;;;;;5032422;28;20697;-76
2021/03/04 08:13:34;;;;;;;31.23;19.47;;;9.10;99.90;;;;;;5032639;28;20203;-76
2021/03/04 08:16:00;;;;;;;32.87;17.97;;;9.30;99.90;;;;;;5032374;28;20227;-76
2021/03/04 08:18:27;;;;;;;31.87;18.57;;;9.30;99.90;;;;;;5032255;28;20305;-77
2021/03/04 08:21:02;;;;;;;32.47;18.50;;;9.30;99.90;;;;;;5031801;28;20208;-76
2021/03/04 08:23:29;;;;;;;31.87;16.87;;;9.50;99.90;;;;;;5032275;28;20543;-76
2021/03/04 08:25:57;;;;;;;30.63;18.47;;;9.50;99.90;;;;;;5032074;28;20206;-76
2021/03/04 08:28:24;;;;;;;33.27;17.97;;;9.40;99.90;;;;;;5032352;28;20289;-76
2021/03/04 08:30:51;;;;;;;31.33;18.33;;;9.60;99.90;;;;;;5031736;28;20207;-77
2021/03/04 08:33:17;;;;;;;30.53;17.57;;;9.70;99.90;;;;;;5032091;28;20210;-76
2021/03/04 08:35:46;;;;;;;35.97;18.53;;;9.70;99.90;;;;;;5031955;28;20561;-76
2021/03/04 08:38:14;;;;;;;31.43;17.60;;;9.70;99.90;;;;;;5032177;28;20209;-76
2021/03/04 08:40:44;;;;;;;34.40;18.17;;;9.70;99.90;;;;;;5032313;28;20208;-76
2021/03/04 08:43:12;;;;;;;36.07;19.17;;;9.90;99.90;;;;;;5031793;28;20196;-77
2021/03/04 08:45:38;;;;;;;28.73;17.53;;;9.90;99.90;;;;;;5032121;28;20214;-76
2021/03/04 08:48:08;;;;;;;25.40;16.37;;;9.80;99.90;;;;;;5032085;28;20232;-76
2021/03/04 08:50:37;;;;;;;26.80;16.10;;;9.60;99.90;;;;;;5031913;28;20208;-77
2021/03/04 08:53:12;;;;;;;34.30;17.87;;;9.70;99.90;;;;;;5031597;28;20207;-76
2021/03/04 08:55:46;;;;;;;27.37;16.27;;;9.90;99.90;;;;;;5031798;28;20227;-76
2021/03/04 08:58:13;;;;;;;22.97;15.50;;;9.80;99.90;;;;;;5031558;28;20298;-77
2021/03/04 09:00:40;;;;;;;25.60;16.77;;;10.00;99.90;;;;;;5031551;28;20236;-77
2021/03/04 09:03:10;;;;;;;25.07;16.33;;;10.10;99.90;;;;;;5031657;28;20208;-77
2021/03/04 09:05:38;;;;;;;26.60;15.13;;;10.30;99.90;;;;;;5031679;28;20342;-76
2021/03/04 09:08:10;;;;;;;24.53;15.27;;;10.60;99.90;;;;;;5031882;28;20206;-77
2021/03/04 09:10:44;;;;;;;25.37;15.77;;;10.60;99.90;;;;;;5031921;28;20201;-76
2021/03/04 09:13:18;;;;;;;18.97;12.70;;;10.60;99.90;;;;;;5031593;28;20202;-77
2021/03/04 09:15:48;;;;;;;18.33;11.93;;;12.30;99.90;;;;;;5031704;28;20225;-77
2021/03/04 09:18:15;;;;;;;16.97;11.17;;;14.10;99.90;;;;;;5031226;28;20257;-77
2021/03/04 09:20:43;;;;;;;17.90;11.60;;;14.70;99.90;;;;;;5039537;28;20208;-77
2021/03/04 09:23:10;;;;;;;22.50;12.90;;;15.40;99.90;;;;;;5051633;28;20200;-77
2021/03/04 09:25:36;;;;;;;19.67;12.60;;;16.40;99.90;;;;;;5054451;28;20290;-78
2021/03/04 09:28:03;;;;;;;18.27;12.97;;;17.10;99.90;;;;;;5055732;28;20204;-78
2021/03/04 09:30:33;;;;;;;18.93;12.90;;;17.30;99.90;;;;;;5055599;28;20282;-78
2021/03/04 09:32:59;;;;;;;18.05;11.82;;;17.50;99.90;;;;;;5055171;28;20268;-78
2021/03/04 09:35:26;;;;;;;13.45;9.38;;;17.80;99.90;;;;;;5055056;28;20334;-78
2021/03/04 09:37:53;;;;;;;10.80;8.23;;;17.40;99.90;;;;;;5055278;28;20206;-77
2021/03/04 09:40:25;;;;;;;13.88;8.57;;;17.00;99.90;;;;;;5054960;28;20290;-76
2021/03/04 09:42:51;;;;;;;13.02;8.68;;;16.90;99.90;;;;;;5055044;28;20282;-78
2021/03/04 09:45:18;;;;;;;14.07;8.27;;;16.10;99.90;;;;;;5055073;28;20619;-77
2021/03/04 09:47:47;;;;;;;14.17;8.77;;;15.20;99.90;;;;;;5054914;28;20286;-77
2021/03/04 09:50:19;;;;;;;12.47;8.20;;;14.30;99.90;;;;;;5054853;28;20200;-77
2021/03/04 09:52:45;;;;;;;12.17;8.50;;;13.80;99.90;;;;;;5055295;28;20349;-77
2021/03/04 09:55:15;;;;;;;11.00;8.43;;;13.20;99.90;;;;;;5054657;28;20710;-78
2021/03/04 09:57:43;;;;;;;12.53;8.10;;;13.00;99.90;;;;;;5034977;28;20291;-76
2021/03/04 10:00:21;;;;;;;11.87;7.63;;;14.80;99.90;;;;;;5035098;28;20201;-78
2021/03/04 10:02:50;;;;;;;10.67;6.93;;;16.50;99.90;;;;;;5034431;28;20204;-78
2021/03/04 10:05:18;;;;;;;10.70;7.30;;;17.30;99.90;;;;;;5034657;28;20320;-78
2021/03/04 10:07:44;;;;;;;9.90;7.13;;;16.60;99.90;;;;;;5035130;28;20598;-77
2021/03/04 10:10:16;;;;;;;12.17;8.37;;;15.40;99.90;;;;;;5034651;28;20208;-78
2021/03/04 10:12:53;;;;;;;13.37;8.47;;;14.40;99.90;;;;;;5034644;28;20555;-78
2021/03/04 10:15:27;;;;;;;16.70;9.00;;;13.80;99.90;;;;;;5034103;28;20220;-76
2021/03/04 10:17:55;;;;;;;13.47;9.70;;;13.30;99.90;;;;;;5034482;28;20257;-76
2021/03/04 10:20:23;;;;;;;15.73;9.70;;;13.20;99.90;;;;;;5034559;28;20200;-76
2021/03/04 10:22:50;;;;;;;12.27;9.57;;;13.10;99.90;;;;;;5047945;28;20659;-75
2021/03/04 10:25:17;;;;;;;13.67;10.77;;;13.60;99.90;;;;;;5054289;28;20199;-76
2021/03/04 10:27:43;;;;;;;14.37;9.10;;;14.30;99.90;;;;;;5053983;28;20291;-78
2021/03/04 10:30:12;;;;;;;15.30;9.30;;;15.70;99.90;;;;;;5053966;28;20621;-75
2021/03/04 10:32:39;;;;;;;13.70;8.70;;;16.00;99.90;;;;;;5053560;28;20238;-77
2021/03/04 10:35:09;;;;;;;12.47;9.37;;;15.80;99.90;;;;;;5053281;28;20232;-75
2021/03/04 10:37:35;;;;;;;12.60;10.03;;;15.70;99.90;;;;;;5053111;28;20210;-75
2021/03/04 10:40:03;;;;;;;13.00;10.10;;;15.70;99.90;;;;;;5054130;28;20290;-76
2021/03/04 10:42:29;;;;;;;13.80;10.00;;;16.70;99.90;;;;;;5053411;28;20202;-78
2021/03/04 10:44:59;;;;;;;13.27;9.33;;;16.50;99.90;;;;;;5053454;28;20230;-78
2021/03/04 10:47:26;;;;;;;14.03;10.00;;;15.40;99.90;;;;;;5053744;28;20622;-78
2021/03/04 10:49:53;;;;;;;14.73;9.27;;;15.70;99.90;;;;;;5053901;28;20207;-78
2021/03/04 10:52:20;;;;;;;12.63;9.03;;;15.90;99.90;;;;;;5053825;28;20200;-77
2021/03/04 10:54:46;;;;;;;13.93;8.83;;;15.20;99.90;;;;;;5053841;28;20199;-78
2021/03/04 10:57:13;;;;;;;11.40;8.13;;;15.00;99.90;;;;;;5049467;28;20648;-77
2021/03/04 10:59:39;;;;;;;12.23;9.27;;;15.30;99.90;;;;;;5016047;28;20196;-78
2021/03/04 11:02:06;;;;;;;14.13;8.40;;;15.50;99.90;;;;;;5033840;28;20213;-78
2021/03/04 11:04:32;;;;;;;10.80;8.07;;;16.10;99.90;;;;;;5033938;28;20319;-77
2021/03/04 11:06:58;;;;;;;11.50;8.17;;;15.90;99.90;;;;;;5033714;28;20219;-77
2021/03/04 11:09:26;;;;;;;13.53;8.10;;;16.10;99.90;;;;;;5033211;28;20894;-77
2021/03/04 11:11:52;;;;;;;13.30;8.00;;;16.60;99.90;;;;;;5033633;28;20685;-77
2021/03/04 11:14:19;;;;;;;11.37;8.40;;;16.90;99.90;;;;;;5033537;28;20295;-78
2021/03/04 11:16:45;;;;;;;13.23;8.73;;;17.20;99.90;;;;;;5033186;28;20602;-78
2021/03/04 11:19:12;;;;;;;9.70;6.80;;;17.40;99.90;;;;;;5033200;28;20323;-78
2021/03/04 11:21:39;;;;;;;11.83;7.50;;;16.60;99.90;;;;;;5033368;28;20206;-78
2021/03/04 11:24:07;;;;;;;12.80;8.60;;;15.50;99.90;;;;;;5033553;28;20200;-77
2021/03/04 11:26:37;;;;;;;14.27;8.90;;;14.80;99.90;;;;;;5033472;28;20196;-77
2021/03/04 11:29:05;;;;;;;12.57;8.90;;;14.50;99.90;;;;;;5033021;28;20204;-77
2021/03/04 11:31:32;;;;;;;14.90;8.87;;;14.10;99.90;;;;;;5033239;28;20204;-77
2021/03/04 11:33:59;;;;;;;12.53;8.97;;;14.20;99.90;;;;;;5032966;28;20226;-78
2021/03/04 11:36:25;;;;;;;12.17;8.37;;;14.40;99.90;;;;;;5033051;28;20220;-78
2021/03/04 11:38:52;;;;;;;12.73;8.13;;;14.50;99.90;;;;;;5032984;28;20606;-77
2021/03/04 11:41:18;;;;;;;11.53;8.13;;;14.90;99.90;;;;;;5033129;28;20201;-77
2021/03/04 11:43:46;;;;;;;14.27;8.73;;;15.10;99.90;;;;;;5032714;28;20216;-77
2021/03/04 11:46:13;;;;;;;11.50;7.97;;;15.20;99.90;;;;;;5033508;28;20342;-77
2021/03/04 11:48:39;;;;;;;14.07;9.00;;;15.20;99.90;;;;;;5032669;28;20291;-78
2021/03/04 11:51:07;;;;;;;11.10;8.60;;;15.20;99.90;;;;;;5032946;28;20676;-77
2021/03/04 11:53:33;;;;;;;13.13;9.37;;;14.90;99.90;;;;;;5032424;28;20209;-77
2021/03/04 11:56:00;;;;;;;14.07;9.80;;;15.10;99.90;;;;;;5032643;28;20228;-78
2021/03/04 11:58:27;;;;;;;15.83;9.80;;;15.00;99.90;;;;;;5045439;28;20264;-78
2021/03/04 12:00:54;;;;;;;14.20;8.93;;;16.00;99.90;;;;;;5052634;28;20302;-78
2021/03/04 12:03:21;;;;;;;14.33;9.33;;;16.50;99.90;;;;;;5052056;28;20203;-78
2021/03/04 12:05:48;;;;;;;15.37;9.63;;;16.70;99.90;;;;;;5051995;28;20560;-78
2021/03/04 12:08:14;;;;;;;17.27;9.27;;;16.80;99.90;;;;;;5052142;28;20290;-78
2021/03/04 12:10:41;;;;;;;15.20;9.37;;;16.60;99.90;;;;;;5053022;28;20195;-78
2021/03/04 12:13:08;;;;;;;13.93;8.67;;;17.30;99.90;;;;;;5052259;28;20230;-78
2021/03/04 12:15:35;;;;;;;12.07;8.55;;;18.30;99.90;;;;;;5052691;28;20310;-78
2021/03/04 12:18:02;;;;;;;12.27;8.55;;;18.10;99.90;;;;;;5052560;28;20222;-78
2021/03/04 12:20:29;;;;;;;12.63;9.00;;;17.10;99.90;;;;;;5052348;28;20812;-78
2021/03/04 12:22:56;;;;;;;13.47;9.23;;;15.90;99.90;;;;;;5050203;28;20295;-78
2021/03/04 12:25:22;;;;;;;14.13;9.87;;;14.70;99.90;;;;;;5032470;28;20287;-77
2021/03/04 12:27:48;;;;;;;16.10;9.73;;;14.40;99.90;;;;;;5032023;28;20302;-77
2021/03/04 12:30:17;;;;;;;16.67;9.43;;;14.80;99.90;;;;;;5032222;28;20339;-78
2021/03/04 12:32:44;;;;;;;16.27;9.93;;;15.30;99.90;;;;;;5032546;28;20236;-78
2021/03/04 12:35:12;;;;;;;16.20;10.60;;;15.40;99.90;;;;;;5032070;28;20679;-78
2021/03/04 12:37:39;;;;;;;16.37;10.43;;;16.30;99.90;;;;;;5032755;28;20300;-78
2021/03/04 12:40:06;;;;;;;17.00;11.20;;;15.90;99.90;;;;;;5032529;28;20206;-78